Time;durP1;ratioP1;P1;durP2;ratioP2;P2;SDS_P1;SDS_P2;PMS_P1;PMS_P2;Temp;Humidity;BMP_temperature;BMP_pressure;BME280_temperature;BME280_humidity;BME280_pressure;Samples;Min_cycle;Max_cycle;Signal;HPM_P1;HPM_P2
2022/11/08 00:03:09;;;;;;;69.13;34.53;;;;;;;;;;6197886;28;20030;-80
2022/11/08 00:16:06;;;;;;;63.28;31.08;;;;;;;;;;6197955;28;20429;-79
2022/11/08 00:19:06;;;;;;;73.35;36.25;;;;;;;;;;6197311;28;20036;-81
2022/11/08 00:22:07;;;;;;;68.38;32.45;;;;;;;;;;6199078;28;20026;-80
2022/11/08 00:25:08;;;;;;;67.82;35.28;;;;;;;;;;6197448;28;20294;-79
2022/11/08 00:28:08;;;;;;;73.28;38.03;;;;;;;;;;6196270;28;20342;-79
2022/11/08 00:31:09;;;;;;;67.64;33.50;;;;;;;;;;6198153;28;20023;-80
2022/11/08 00:34:09;;;;;;;84.40;39.10;;;;;;;;;;6201637;28;20017;-80
2022/11/08 00:37:10;;;;;;;72.17;35.47;;;;;;;;;;6202586;28;20112;-81
2022/11/08 00:40:10;;;;;;;71.83;36.53;;;;;;;;;;6201551;28;20044;-81
2022/11/08 00:43:11;;;;;;;69.33;36.10;;;;;;;;;;6200762;28;20015;-79
2022/11/08 00:46:11;;;;;;;82.13;39.70;;;;;;;;;;6201558;28;20112;-79
2022/11/08 00:49:11;;;;;;;68.13;36.00;;;;;;;;;;6201055;28;20034;-80
2022/11/08 00:52:11;;;;;;;74.46;36.22;;;;;;;;;;6201988;28;20297;-79
2022/11/08 00:55:11;;;;;;;71.42;38.68;;;;;;;;;;6201874;28;20364;-78
2022/11/08 00:58:12;;;;;;;74.37;33.67;;;;;;;;;;6200655;28;20479;-78
2022/11/08 01:01:15;;;;;;;62.42;32.03;;;;;;;;;;6200128;28;20019;-81
2022/11/08 01:04:16;;;;;;;83.18;38.83;;;;;;;;;;6200841;28;20285;-80
2022/11/08 01:07:16;;;;;;;72.65;35.75;;;;;;;;;;6201588;28;20022;-78
2022/11/08 01:10:17;;;;;;;74.50;38.90;;;;;;;;;;6200803;28;20050;-79
2022/11/08 01:13:17;;;;;;;80.00;39.97;;;;;;;;;;6183582;28;20484;-81
2022/11/08 01:16:19;;;;;;;85.28;41.05;;;;;;;;;;6197928;28;20019;-78
2022/11/08 01:19:19;;;;;;;75.43;37.65;;;;;;;;;;6199488;28;20030;-78
2022/11/08 01:22:19;;;;;;;78.90;40.43;;;;;;;;;;6200233;28;20018;-77
2022/11/08 01:25:19;;;;;;;76.67;39.90;;;;;;;;;;6181454;28;20023;-77
2022/11/08 01:28:20;;;;;;;69.73;35.80;;;;;;;;;;6199262;28;20022;-78
2022/11/08 01:31:21;;;;;;;77.00;37.33;;;;;;;;;;6198107;28;20470;-78
2022/11/08 01:34:22;;;;;;;75.55;37.40;;;;;;;;;;6183851;28;20618;-76
2022/11/08 01:37:22;;;;;;;74.65;40.30;;;;;;;;;;6181996;28;20032;-76
2022/11/08 01:40:22;;;;;;;76.30;38.70;;;;;;;;;;6198767;28;20026;-77
2022/11/08 01:43:28;;;;;;;74.93;37.43;;;;;;;;;;6196808;28;20026;-77
2022/11/08 01:46:33;;;;;;;75.00;38.20;;;;;;;;;;6198715;28;20034;-77
2022/11/08 01:49:36;;;;;;;70.97;34.35;;;;;;;;;;6196921;28;20040;-77
2022/11/08 01:52:47;;;;;;;76.68;40.85;;;;;;;;;;6198085;28;20478;-77
2022/11/08 01:55:47;;;;;;;88.28;43.42;;;;;;;;;;6180979;28;20026;-77
2022/11/08 01:58:49;;;;;;;75.20;39.83;;;;;;;;;;6180944;28;20537;-77
2022/11/08 02:01:50;;;;;;;79.30;39.20;;;;;;;;;;6178587;28;20029;-77
2022/11/08 02:04:50;;;;;;;80.00;39.90;;;;;;;;;;6180910;28;20046;-76
2022/11/08 02:07:56;;;;;;;72.65;36.05;;;;;;;;;;6198646;28;20026;-77
2022/11/08 02:10:56;;;;;;;75.72;42.38;;;;;;;;;;6181598;28;20026;-77
2022/11/08 02:13:57;;;;;;;74.80;39.53;;;;;;;;;;6198131;28;20029;-77
2022/11/08 02:16:57;;;;;;;76.53;40.03;;;;;;;;;;6181899;28;20038;-77
2022/11/08 02:19:57;;;;;;;79.72;39.72;;;;;;;;;;6196725;28;20010;-76
2022/11/08 02:23:03;;;;;;;71.80;38.80;;;;;;;;;;6198152;28;20077;-76
2022/11/08 02:26:03;;;;;;;69.20;37.67;;;;;;;;;;6180908;28;20095;-76
2022/11/08 02:29:22;;;;;;;79.13;39.50;;;;;;;;;;6197573;28;20401;-76
2022/11/08 02:32:22;;;;;;;57.90;32.20;;;;;;;;;;6198430;28;20033;-76
2022/11/08 02:35:24;;;;;;;71.10;37.30;;;;;;;;;;6197317;28;20022;-76
2022/11/08 02:38:25;;;;;;;66.80;33.53;;;;;;;;;;6194769;28;20038;-77
2022/11/08 02:41:25;;;;;;;49.53;25.73;;;;;;;;;;6197433;28;20027;-77
2022/11/08 02:44:25;;;;;;;67.15;36.25;;;;;;;;;;6199469;28;20010;-77
2022/11/08 02:47:25;;;;;;;63.70;34.00;;;;;;;;;;6198202;28;20101;-77
2022/11/08 02:50:25;;;;;;;62.75;33.20;;;;;;;;;;6179510;28;20390;-78
2022/11/08 02:53:26;;;;;;;62.37;33.70;;;;;;;;;;6196691;28;20038;-77
2022/11/08 02:56:26;;;;;;;73.83;39.67;;;;;;;;;;6194782;28;20281;-77
2022/11/08 02:59:26;;;;;;;45.53;27.42;;;;;;;;;;6179066;28;20093;-77
2022/11/08 03:02:26;;;;;;;67.50;35.13;;;;;;;;;;6195474;28;20054;-77
2022/11/08 03:05:27;;;;;;;62.67;33.87;;;;;;;;;;6195560;28;20050;-77
2022/11/08 03:08:27;;;;;;;73.33;37.43;;;;;;;;;;6178211;28;20019;-78
2022/11/08 03:11:27;;;;;;;51.47;26.03;;;;;;;;;;6196246;28;20521;-77
2022/11/08 03:14:27;;;;;;;63.70;33.20;;;;;;;;;;6198574;28;20022;-78
2022/11/08 03:17:28;;;;;;;51.03;29.10;;;;;;;;;;6193592;28;20018;-78
2022/11/08 03:20:28;;;;;;;76.57;37.10;;;;;;;;;;6195928;28;20022;-77
2022/11/08 03:23:29;;;;;;;68.20;38.50;;;;;;;;;;6181381;28;20489;-78
2022/11/08 03:26:30;;;;;;;70.20;35.67;;;;;;;;;;6195871;28;20401;-78
2022/11/08 03:29:30;;;;;;;64.03;33.95;;;;;;;;;;6179911;28;20077;-78
2022/11/08 03:32:31;;;;;;;64.97;35.50;;;;;;;;;;6180078;28;20018;-79
2022/11/08 03:35:31;;;;;;;64.47;31.73;;;;;;;;;;6200075;28;20386;-79
2022/11/08 03:38:31;;;;;;;65.97;32.00;;;;;;;;;;6196799;28;20033;-79
2022/11/08 03:41:31;;;;;;;63.63;30.88;;;;;;;;;;6180468;28;20089;-79
2022/11/08 03:44:31;;;;;;;61.22;31.45;;;;;;;;;;6196157;28;20027;-79
2022/11/08 03:47:35;;;;;;;68.85;31.60;;;;;;;;;;6180394;28;20113;-79
2022/11/08 03:50:35;;;;;;;62.10;32.38;;;;;;;;;;6198193;28;20027;-79
2022/11/08 03:53:36;;;;;;;60.20;31.17;;;;;;;;;;6195763;28;20030;-79
2022/11/08 03:56:36;;;;;;;59.75;32.33;;;;;;;;;;6179888;28;20023;-79
2022/11/08 03:59:36;;;;;;;59.53;30.27;;;;;;;;;;6196633;28;20018;-78
2022/11/08 04:02:36;;;;;;;42.35;22.77;;;;;;;;;;6198175;28;20010;-78
2022/11/08 04:05:37;;;;;;;55.33;30.67;;;;;;;;;;6197370;28;20039;-78
2022/11/08 04:08:37;;;;;;;45.72;23.25;;;;;;;;;;6201580;28;20076;-79
2022/11/08 04:15:14;;;;;;;60.78;30.17;;;;;;;;;;6201786;28;20458;-79
2022/11/08 04:21:33;;;;;;;60.15;33.72;;;;;;;;;;6202368;28;20030;-80
2022/11/08 04:24:33;;;;;;;66.07;34.97;;;;;;;;;;6199627;28;20433;-80
2022/11/08 04:27:34;;;;;;;63.30;35.73;;;;;;;;;;6184827;28;20026;-80
2022/11/08 04:30:34;;;;;;;59.70;34.64;;;;;;;;;;6202879;28;20042;-79
2022/11/08 04:33:34;;;;;;;72.47;35.77;;;;;;;;;;6184262;28;20037;-80
2022/11/08 04:36:35;;;;;;;70.60;37.90;;;;;;;;;;6200552;28;20394;-80
2022/11/08 04:39:35;;;;;;;64.60;35.77;;;;;;;;;;6201606;28;20018;-80
2022/11/08 04:42:35;;;;;;;63.17;31.45;;;;;;;;;;6183855;28;20034;-80
2022/11/08 04:45:35;;;;;;;54.58;29.76;;;;;;;;;;6183989;28;20026;-80
2022/11/08 04:48:36;;;;;;;61.97;29.17;;;;;;;;;;6184576;28;20030;-80
2022/11/08 04:51:36;;;;;;;55.40;27.87;;;;;;;;;;6183781;28;20050;-80
2022/11/08 04:54:36;;;;;;;58.07;28.13;;;;;;;;;;6201918;28;20018;-80
2022/11/08 04:57:36;;;;;;;52.57;28.47;;;;;;;;;;6184623;28;20049;-80
2022/11/08 05:00:37;;;;;;;51.08;27.70;;;;;;;;;;6201953;28;20014;-80
2022/11/08 05:03:37;;;;;;;55.87;29.23;;;;;;;;;;6183297;28;20038;-81
2022/11/08 05:06:37;;;;;;;60.63;28.37;;;;;;;;;;6184567;28;20019;-80
2022/11/08 05:09:37;;;;;;;57.27;28.33;;;;;;;;;;6184224;28;20089;-80
2022/11/08 05:12:37;;;;;;;53.65;27.38;;;;;;;;;;6183706;28;20010;-81
2022/11/08 05:15:38;;;;;;;58.23;28.73;;;;;;;;;;6201569;28;20017;-80
2022/11/08 05:18:38;;;;;;;53.60;28.33;;;;;;;;;;6184413;28;20386;-80
2022/11/08 05:24:57;;;;;;;60.22;30.45;;;;;;;;;;6203384;28;20393;-80
2022/11/08 05:27:58;;;;;;;63.57;33.50;;;;;;;;;;6201137;28;20049;-82
2022/11/08 05:30:58;;;;;;;63.60;29.50;;;;;;;;;;6201342;28;20015;-81
2022/11/08 05:33:59;;;;;;;56.37;28.27;;;;;;;;;;6200763;28;20025;-81
2022/11/08 05:36:59;;;;;;;56.38;28.40;;;;;;;;;;6183294;28;20022;-81
2022/11/08 05:39:59;;;;;;;48.03;23.67;;;;;;;;;;6199658;28;20477;-81
2022/11/08 05:43:00;;;;;;;49.40;24.40;;;;;;;;;;6199990;28;20061;-81
2022/11/08 05:46:00;;;;;;;48.73;25.47;;;;;;;;;;6200271;28;20064;-81
2022/11/08 05:49:00;;;;;;;57.93;30.27;;;;;;;;;;6199887;28;20046;-81
2022/11/08 05:52:01;;;;;;;48.28;25.52;;;;;;;;;;6200583;28;20029;-81
2022/11/08 05:55:01;;;;;;;54.30;27.17;;;;;;;;;;6185648;28;20022;-81
2022/11/08 05:58:01;;;;;;;44.85;25.80;;;;;;;;;;6201712;28;20073;-80
2022/11/08 06:01:04;;;;;;;53.50;26.90;;;;;;;;;;6183542;28;20011;-79
2022/11/08 06:04:04;;;;;;;57.92;29.00;;;;;;;;;;6182897;28;20018;-81
2022/11/08 06:07:05;;;;;;;61.60;32.03;;;;;;;;;;6183356;28;20104;-81
2022/11/08 06:10:05;;;;;;;55.83;32.45;;;;;;;;;;6181798;28;20023;-80
2022/11/08 06:13:05;;;;;;;47.23;30.37;;;;;;;;;;6182358;28;20430;-81
2022/11/08 06:16:07;;;;;;;60.07;29.17;;;;;;;;;;6182048;28;20030;-80
2022/11/08 06:19:07;;;;;;;56.45;32.92;;;;;;;;;;6199607;28;20011;-79
2022/11/08 06:22:08;;;;;;;48.58;30.75;;;;;;;;;;6199317;28;20015;-79
2022/11/08 06:25:08;;;;;;;47.17;27.83;;;;;;;;;;6199049;28;20018;-79
2022/11/08 06:28:08;;;;;;;38.60;26.40;;;;;;;;;;6199524;28;20030;-79
2022/11/08 06:31:09;;;;;;;49.97;32.55;;;;;;;;;;6181311;28;20106;-79
2022/11/08 06:34:09;;;;;;;59.30;38.53;;;;;;;;;;6181925;28;20429;-79
2022/11/08 06:37:09;;;;;;;70.88;38.67;;;;;;;;;;6182614;28;20053;-78
2022/11/08 06:40:09;;;;;;;66.50;42.83;;;;;;;;;;6196587;28;20018;-79
2022/11/08 06:43:13;;;;;;;59.17;38.53;;;;;;;;;;6181957;28;20041;-78
2022/11/08 06:46:14;;;;;;;54.42;32.13;;;;;;;;;;6197105;28;20124;-79
2022/11/08 06:49:14;;;;;;;47.60;30.83;;;;;;;;;;6180697;28;20386;-79
2022/11/08 06:52:14;;;;;;;45.25;29.17;;;;;;;;;;6198145;28;20060;-78
2022/11/08 06:55:14;;;;;;;63.80;40.17;;;;;;;;;;6196895;28;20048;-79
2022/11/08 06:58:15;;;;;;;43.83;27.30;;;;;;;;;;6196809;28;20483;-79
2022/11/08 07:01:15;;;;;;;38.57;26.10;;;;;;;;;;6195559;28;20014;-79
2022/11/08 07:04:15;;;;;;;45.00;27.13;;;;;;;;;;6197445;28;20116;-79
2022/11/08 07:07:15;;;;;;;48.67;29.48;;;;;;;;;;6198313;28;20042;-78
2022/11/08 07:10:16;;;;;;;47.25;28.88;;;;;;;;;;6197138;28;20486;-78
2022/11/08 07:13:16;;;;;;;42.20;25.93;;;;;;;;;;6180197;28;20014;-79
2022/11/08 07:16:16;;;;;;;45.50;26.80;;;;;;;;;;6178956;28;20022;-78
2022/11/08 07:19:16;;;;;;;47.27;27.63;;;;;;;;;;6196982;28;20057;-78
2022/11/08 07:22:17;;;;;;;42.67;29.30;;;;;;;;;;6185556;28;20604;-77
2022/11/08 07:25:17;;;;;;;53.95;35.55;;;;;;;;;;6195728;28;20377;-77
2022/11/08 07:28:18;;;;;;;62.45;37.40;;;;;;;;;;6196090;28;20018;-77
2022/11/08 07:31:18;;;;;;;57.73;34.07;;;;;;;;;;6175845;28;20161;-78
2022/11/08 07:34:18;;;;;;;53.87;35.17;;;;;;;;;;6175793;28;20069;-76
2022/11/08 07:37:18;;;;;;;65.77;40.33;;;;;;;;;;6196713;28;20118;-78
2022/11/08 07:40:18;;;;;;;73.85;39.58;;;;;;;;;;6180974;28;20018;-77
2022/11/08 07:43:19;;;;;;;63.00;39.20;;;;;;;;;;6201553;28;20411;-77
2022/11/08 07:46:19;;;;;;;60.20;34.77;;;;;;;;;;6202126;28;20449;-77
2022/11/08 07:49:19;;;;;;;49.40;27.87;;;;;;;;;;6182084;28;20026;-77
2022/11/08 07:52:19;;;;;;;43.93;23.60;;;;;;;;;;6202069;28;20022;-77
2022/11/08 07:55:19;;;;;;;37.75;19.85;;;;;;;;;;6183468;28;20019;-78
2022/11/08 07:58:19;;;;;;;30.63;17.03;;;;;;;;;;6199903;28;20019;-77
2022/11/08 08:01:20;;;;;;;24.17;17.80;;;;;;;;;;6201925;28;20015;-76
2022/11/08 08:04:20;;;;;;;28.00;19.23;;;;;;;;;;6200303;28;20038;-76
2022/11/08 08:07:20;;;;;;;24.73;16.48;;;;;;;;;;6202218;28;20431;-76
2022/11/08 08:10:20;;;;;;;22.43;12.73;;;;;;;;;;6183381;28;20099;-76
2022/11/08 08:13:20;;;;;;;18.52;10.82;;;;;;;;;;6200992;28;20026;-76
2022/11/08 08:16:21;;;;;;;19.95;12.35;;;;;;;;;;6199711;28;20730;-76
2022/11/08 08:19:21;;;;;;;22.00;12.87;;;;;;;;;;6183410;28;20026;-76
2022/11/08 08:22:22;;;;;;;19.87;12.87;;;;;;;;;;6180919;28;20265;-76
2022/11/08 08:25:22;;;;;;;22.92;14.10;;;;;;;;;;6199436;28;20061;-78
2022/11/08 08:28:22;;;;;;;17.80;13.10;;;;;;;;;;6182266;28;20537;-76
2022/11/08 08:31:23;;;;;;;23.33;15.43;;;;;;;;;;6200078;28;20064;-76
2022/11/08 08:34:23;;;;;;;24.92;15.70;;;;;;;;;;6200563;28;20049;-77
2022/11/08 08:37:23;;;;;;;24.53;16.07;;;;;;;;;;6200208;28;20022;-77
2022/11/08 08:40:23;;;;;;;25.35;16.27;;;;;;;;;;6198838;28;20053;-75
2022/11/08 08:43:23;;;;;;;27.30;16.73;;;;;;;;;;6199813;28;20136;-75
2022/11/08 08:46:24;;;;;;;26.60;16.50;;;;;;;;;;6182537;28;20109;-76
2022/11/08 08:49:24;;;;;;;26.33;15.83;;;;;;;;;;6200003;28;20015;-76
2022/11/08 08:52:24;;;;;;;20.33;14.03;;;;;;;;;;6199608;28;20018;-75
2022/11/08 08:55:24;;;;;;;23.47;14.43;;;;;;;;;;6199203;28;20014;-76
2022/11/08 08:58:24;;;;;;;26.53;16.27;;;;;;;;;;6181957;28;20078;-76
2022/11/08 09:01:25;;;;;;;26.03;17.80;;;;;;;;;;6182076;28;20116;-76
2022/11/08 09:04:26;;;;;;;23.77;16.63;;;;;;;;;;6180326;28;20039;-77
2022/11/08 09:07:26;;;;;;;23.52;14.80;;;;;;;;;;6180340;28;20049;-76
2022/11/08 09:10:27;;;;;;;24.75;15.50;;;;;;;;;;6181294;28;20025;-76
2022/11/08 09:13:29;;;;;;;25.00;15.43;;;;;;;;;;6179031;28;20492;-77
2022/11/08 09:16:29;;;;;;;25.58;17.33;;;;;;;;;;6180935;28;20014;-76
2022/11/08 09:19:30;;;;;;;24.87;17.20;;;;;;;;;;6197183;28;20006;-76
2022/11/08 09:22:31;;;;;;;23.65;15.85;;;;;;;;;;6178703;28;20014;-76
2022/11/08 09:25:31;;;;;;;;;;;;;;;;;;6197270;28;20018;-75
2022/11/08 09:28:33;;;;;;;26.20;16.38;;;;;;;;;;6197615;28;20361;-76
2022/11/08 09:31:33;;;;;;;24.23;15.20;;;;;;;;;;6197165;28;20394;-77
2022/11/08 09:34:34;;;;;;;20.07;12.57;;;;;;;;;;6198708;28;20010;-78
2022/11/08 09:37:35;;;;;;;18.15;12.23;;;;;;;;;;6198991;28;20026;-77
2022/11/08 09:40:38;;;;;;;16.50;10.47;;;;;;;;;;6198132;28;20073;-77
2022/11/08 09:43:51;;;;;;;16.02;9.80;;;;;;;;;;6195060;28;20029;-76
2022/11/08 09:46:53;;;;;;;16.75;9.52;;;;;;;;;;6179658;28;20026;-77
2022/11/08 09:49:57;;;;;;;16.50;8.27;;;;;;;;;;6198805;28;20030;-75
2022/11/08 09:53:06;;;;;;;15.82;9.68;;;;;;;;;;6180906;28;20010;-76
2022/11/08 09:56:12;;;;;;;19.58;9.48;;;;;;;;;;6177964;28;20050;-75
2022/11/08 09:59:21;;;;;;;21.45;10.75;;;;;;;;;;6198833;28;20022;-74
2022/11/08 10:02:22;;;;;;;19.92;9.30;;;;;;;;;;6197993;28;20593;-74
2022/11/08 10:05:25;;;;;;;16.83;7.68;;;;;;;;;;6198298;28;20105;-76
2022/11/08 10:08:30;;;;;;;15.93;8.48;;;;;;;;;;6198140;28;20470;-75
2022/11/08 10:11:38;;;;;;;18.15;9.80;;;;;;;;;;6180214;28;20410;-76
2022/11/08 10:14:50;;;;;;;21.70;9.38;;;;;;;;;;6195598;28;20037;-75
2022/11/08 10:18:00;;;;;;;15.25;7.63;;;;;;;;;;6179554;28;20032;-76
2022/11/08 10:21:06;;;;;;;14.63;7.57;;;;;;;;;;6197626;28;20045;-76
2022/11/08 10:24:20;;;;;;;13.13;7.38;;;;;;;;;;6197413;28;20029;-76
2022/11/08 10:27:28;;;;;;;19.88;7.45;;;;;;;;;;6197879;28;20485;-76
2022/11/08 10:30:39;;;;;;;14.23;7.57;;;;;;;;;;6179036;28;20462;-76
2022/11/08 10:33:56;;;;;;;12.43;7.40;;;;;;;;;;6190599;28;20026;-76
2022/11/08 10:37:01;;;;;;;13.40;7.47;;;;;;;;;;6194189;28;20478;-76
2022/11/08 10:40:15;;;;;;;12.73;7.63;;;;;;;;;;6193508;28;20019;-76
2022/11/08 10:43:20;;;;;;;12.15;6.85;;;;;;;;;;6192530;28;20049;-76
2022/11/08 10:46:30;;;;;;;13.60;7.93;;;;;;;;;;6195769;28;20022;-75
2022/11/08 10:49:32;;;;;;;11.05;6.53;;;;;;;;;;6196619;28;20378;-76
2022/11/08 10:52:32;;;;;;;;;;;;;;;;;;6195798;28;20025;-76
2022/11/08 10:55:37;;;;;;;12.32;6.32;;;;;;;;;;6194234;28;19921;-76
2022/11/08 10:58:38;;;;;;;17.98;5.90;;;;;;;;;;6176890;28;20478;-76
2022/11/08 11:01:38;;;;;;;;;;;;;;;;;;6175156;28;20039;-76
2022/11/08 11:04:39;;;;;;;14.65;6.53;;;;;;;;;;6168078;28;19954;-76
2022/11/08 11:07:39;;;;;;;11.60;6.50;;;;;;;;;;6169085;28;20424;-75
2022/11/08 11:10:39;;;;;;;12.20;6.63;;;;;;;;;;6173088;28;20494;-75
2022/11/08 11:13:39;;;;;;;11.70;6.28;;;;;;;;;;6170862;28;20027;-75
2022/11/08 11:16:58;;;;;;;16.10;7.30;;;;;;;;;;6171968;28;20015;-75
2022/11/08 11:19:59;;;;;;;15.32;7.10;;;;;;;;;;6169103;28;20106;-76
2022/11/08 11:22:59;;;;;;;13.93;7.07;;;;;;;;;;6171671;28;20027;-75
2022/11/08 11:26:00;;;;;;;16.67;5.83;;;;;;;;;;6170965;28;20081;-76
2022/11/08 11:29:04;;;;;;;9.23;5.63;;;;;;;;;;6169915;28;20084;-75
2022/11/08 11:32:22;;;;;;;12.98;6.38;;;;;;;;;;6172077;28;20031;-76
2022/11/08 11:35:23;;;;;;;10.45;5.22;;;;;;;;;;6171676;28;20019;-75
2022/11/08 11:38:32;;;;;;;9.77;5.07;;;;;;;;;;6172620;28;20563;-75
2022/11/08 11:41:38;;;;;;;10.32;4.93;;;;;;;;;;6172357;28;20026;-75
2022/11/08 11:44:52;;;;;;;8.30;5.93;;;;;;;;;;6168973;28;20015;-76
2022/11/08 11:48:03;;;;;;;12.20;6.28;;;;;;;;;;6170603;28;20027;-75
2022/11/08 11:51:03;;;;;;;10.93;7.07;;;;;;;;;;6170028;28;20031;-75
2022/11/08 11:54:05;;;;;;;17.63;6.73;;;;;;;;;;6170317;28;20046;-75
2022/11/08 11:57:05;;;;;;;12.52;6.10;;;;;;;;;;6170191;28;20030;-75
2022/11/08 12:00:13;;;;;;;15.13;7.57;;;;;;;;;;6168872;28;20475;-75
2022/11/08 12:03:17;;;;;;;11.75;6.85;;;;;;;;;;6182847;28;20150;-77
2022/11/08 12:06:23;;;;;;;47.75;25.65;;;;;;;;;;6191646;28;20040;-76
2022/11/08 12:09:24;;;;;;;19.40;8.95;;;;;;;;;;6196161;28;20042;-76
2022/11/08 12:12:24;;;;;;;47.53;31.87;;;;;;;;;;6193678;28;20034;-76
2022/11/08 12:15:28;;;;;;;14.90;9.60;;;;;;;;;;6193681;28;20027;-77
2022/11/08 12:18:44;;;;;;;13.05;8.00;;;;;;;;;;6194293;28;20085;-76
2022/11/08 12:21:52;;;;;;;9.18;5.82;;;;;;;;;;6193924;28;20022;-76
2022/11/08 12:25:11;;;;;;;11.13;6.30;;;;;;;;;;6193318;28;20018;-76
2022/11/08 12:28:30;;;;;;;12.02;5.93;;;;;;;;;;6198540;28;20033;-77
2022/11/08 12:31:49;;;;;;;10.20;6.03;;;;;;;;;;6201930;28;20036;-76
2022/11/08 12:34:56;;;;;;;12.40;6.05;;;;;;;;;;6199114;28;20030;-76
2022/11/08 12:38:11;;;;;;;13.38;5.28;;;;;;;;;;6199085;28;20046;-78
2022/11/08 12:41:18;;;;;;;11.57;5.68;;;;;;;;;;6199454;28;20077;-78
2022/11/08 12:44:22;;;;;;;8.77;4.80;;;;;;;;;;6198904;28;20022;-76
2022/11/08 12:47:28;;;;;;;9.32;4.80;;;;;;;;;;6181550;28;20033;-76
2022/11/08 12:50:31;;;;;;;6.90;3.90;;;;;;;;;;6181124;28;20473;-77
2022/11/08 12:53:50;;;;;;;11.23;3.90;;;;;;;;;;6199307;28;20066;-75
2022/11/08 12:56:51;;;;;;;13.20;4.97;;;;;;;;;;6181157;28;20421;-75
2022/11/08 12:59:57;;;;;;;6.43;3.83;;;;;;;;;;6198405;28;20648;-75
2022/11/08 13:03:23;;;;;;;8.23;3.55;;;;;;;;;;6197325;28;20022;-76
2022/11/08 13:06:26;;;;;;;9.15;3.53;;;;;;;;;;6176442;28;20046;-75
2022/11/08 13:09:31;;;;;;;7.15;3.58;;;;;;;;;;6198235;28;20485;-76
2022/11/08 13:12:43;;;;;;;4.43;2.83;;;;;;;;;;6179832;28;20018;-76
2022/11/08 13:16:01;;;;;;;9.82;2.88;;;;;;;;;;6195095;28;20030;-76
2022/11/08 13:19:04;;;;;;;5.13;2.50;;;;;;;;;;6196001;28;20033;-76
2022/11/08 13:22:24;;;;;;;5.50;2.22;;;;;;;;;;6194019;28;20344;-76
2022/11/08 13:25:24;;;;;;;5.38;2.53;;;;;;;;;;6178188;28;20467;-76
2022/11/08 13:28:35;;;;;;;5.37;2.30;;;;;;;;;;6177736;28;20034;-76
2022/11/08 13:31:36;;;;;;;4.22;2.15;;;;;;;;;;6196993;28;20030;-77
2022/11/08 13:34:43;;;;;;;7.33;2.77;;;;;;;;;;6178798;28;20054;-77
2022/11/08 13:38:05;;;;;;;7.72;2.70;;;;;;;;;;6178023;28;20027;-75
2022/11/08 13:41:15;;;;;;;7.25;3.13;;;;;;;;;;6193030;28;20023;-75
2022/11/08 13:44:38;;;;;;;4.80;2.30;;;;;;;;;;6195064;28;20022;-77
2022/11/08 13:47:41;;;;;;;5.28;2.83;;;;;;;;;;6192429;28;20097;-77
2022/11/08 13:50:46;;;;;;;8.00;2.40;;;;;;;;;;6179629;28;20022;-75
2022/11/08 13:53:48;;;;;;;4.00;2.63;;;;;;;;;;6180361;28;20434;-77
2022/11/08 13:56:56;;;;;;;8.48;3.60;;;;;;;;;;6180124;28;20025;-76
2022/11/08 13:59:56;;;;;;;8.40;3.22;;;;;;;;;;6198748;28;20438;-76
2022/11/08 14:02:56;;;;;;;5.17;2.13;;;;;;;;;;6179829;28;20015;-76
2022/11/08 14:06:18;;;;;;;7.15;3.28;;;;;;;;;;6196992;28;20149;-77
2022/11/08 14:09:27;;;;;;;8.93;3.58;;;;;;;;;;6137509;28;20380;-76
2022/11/08 14:12:38;;;;;;;7.28;2.90;;;;;;;;;;6179075;28;20022;-76
2022/11/08 14:15:38;;;;;;;;;;;;;;;;;;6197859;28;20532;-75
2022/11/08 14:18:39;;;;;;;8.30;3.05;;;;;;;;;;6192937;28;19909;-76
2022/11/08 14:21:44;;;;;;;7.77;3.37;;;;;;;;;;6196095;28;20022;-75
2022/11/08 14:24:45;;;;;;;10.63;5.93;;;;;;;;;;6197991;28;20022;-75
2022/11/08 14:27:45;;;;;;;12.80;6.60;;;;;;;;;;6197712;28;20108;-76
2022/11/08 14:30:46;;;;;;;17.53;6.67;;;;;;;;;;6196801;28;20258;-75
2022/11/08 14:33:47;;;;;;;15.93;7.47;;;;;;;;;;6196514;28;20106;-75
2022/11/08 14:36:48;;;;;;;16.77;8.73;;;;;;;;;;6197235;28;20064;-75
2022/11/08 14:39:49;;;;;;;18.33;9.57;;;;;;;;;;6178364;28;20022;-76
2022/11/08 14:42:50;;;;;;;19.50;8.30;;;;;;;;;;6173902;28;20893;-76
2022/11/08 14:45:50;;;;;;;30.20;17.50;;;;;;;;;;6190893;28;20497;-76
2022/11/08 14:48:53;;;;;;;20.67;9.23;;;;;;;;;;6192245;28;20030;-76
2022/11/08 14:52:03;;;;;;;18.95;9.57;;;;;;;;;;6187354;28;20018;-76
2022/11/08 14:55:05;;;;;;;14.88;7.25;;;;;;;;;;6193405;28;20026;-76
2022/11/08 14:58:12;;;;;;;12.88;6.03;;;;;;;;;;6192760;28;20554;-76
2022/11/08 15:01:13;;;;;;;13.70;6.13;;;;;;;;;;6192701;28;20071;-76
2022/11/08 15:04:18;;;;;;;12.45;6.38;;;;;;;;;;6191548;28;20043;-75
2022/11/08 15:07:20;;;;;;;12.88;6.55;;;;;;;;;;6191384;28;20030;-75
2022/11/08 15:10:26;;;;;;;8.82;5.45;;;;;;;;;;6191373;28;20018;-77
2022/11/08 15:13:31;;;;;;;12.43;5.57;;;;;;;;;;6176555;28;20053;-76
2022/11/08 15:16:41;;;;;;;10.80;5.28;;;;;;;;;;6194569;28;20028;-76
2022/11/08 15:19:43;;;;;;;15.93;5.93;;;;;;;;;;6193877;28;20045;-75
2022/11/08 15:22:45;;;;;;;;;;;;;;;;;;6195614;28;20022;-75
2022/11/08 15:25:53;;;;;;;27.48;7.63;;;;;;;;;;6175280;28;19910;-76
2022/11/08 15:29:14;;;;;;;17.98;7.07;;;;;;;;;;6191508;28;20022;-76
2022/11/08 15:32:16;;;;;;;13.98;5.55;;;;;;;;;;6185887;28;20022;-74
2022/11/08 15:35:22;;;;;;;38.78;15.30;;;;;;;;;;6193741;28;20032;-75
2022/11/08 15:38:31;;;;;;;23.73;7.82;;;;;;;;;;6174484;28;20026;-76
2022/11/08 15:41:34;;;;;;;23.95;7.72;;;;;;;;;;6192862;28;20395;-76
2022/11/08 15:44:34;;;;;;;25.80;7.78;;;;;;;;;;6176114;28;20038;-75
2022/11/08 15:47:36;;;;;;;14.75;7.00;;;;;;;;;;6193832;28;20105;-75
2022/11/08 15:50:36;;;;;;;21.10;6.93;;;;;;;;;;6192962;28;20433;-75
2022/11/08 15:53:36;;;;;;;13.15;6.35;;;;;;;;;;6193171;28;20022;-76
2022/11/08 15:56:37;;;;;;;13.98;5.70;;;;;;;;;;6190922;28;20029;-75
2022/11/08 15:59:38;;;;;;;13.57;6.07;;;;;;;;;;6191526;28;20029;-75
2022/11/08 16:02:38;;;;;;;14.40;5.55;;;;;;;;;;6180012;28;20011;-75
2022/11/08 16:05:38;;;;;;;14.38;6.57;;;;;;;;;;6181791;28;20050;-76
2022/11/08 16:08:39;;;;;;;16.17;7.63;;;;;;;;;;6199684;28;20022;-75
2022/11/08 16:11:39;;;;;;;17.57;9.00;;;;;;;;;;6198921;28;20014;-75
2022/11/08 16:14:39;;;;;;;23.03;11.80;;;;;;;;;;6181238;28;20014;-76
2022/11/08 16:17:40;;;;;;;23.93;13.60;;;;;;;;;;6201230;28;20034;-76
2022/11/08 16:20:40;;;;;;;26.87;13.40;;;;;;;;;;6199030;28;20108;-76
2022/11/08 16:23:40;;;;;;;33.80;17.17;;;;;;;;;;6198744;28;20026;-77
2022/11/08 16:26:41;;;;;;;30.10;16.00;;;;;;;;;;6199801;28;20030;-76
2022/11/08 16:29:42;;;;;;;30.63;16.43;;;;;;;;;;6198558;28;20118;-76
2022/11/08 16:32:42;;;;;;;31.20;14.98;;;;;;;;;;6194456;28;20891;-76
2022/11/08 16:35:42;;;;;;;40.03;22.37;;;;;;;;;;6184115;28;20049;-76
2022/11/08 16:38:44;;;;;;;41.65;23.08;;;;;;;;;;6199711;28;20018;-77
2022/11/08 16:41:44;;;;;;;30.65;16.67;;;;;;;;;;6182765;28;20120;-77
2022/11/08 16:44:44;;;;;;;37.23;20.53;;;;;;;;;;6182266;28;20462;-77
2022/11/08 16:47:46;;;;;;;37.38;18.75;;;;;;;;;;6181862;28;20018;-76
2022/11/08 16:50:47;;;;;;;46.20;22.67;;;;;;;;;;6176607;28;20323;-79
2022/11/08 16:53:48;;;;;;;42.55;23.98;;;;;;;;;;6203050;28;20049;-80
2022/11/08 16:56:48;;;;;;;46.08;24.63;;;;;;;;;;6200966;28;20442;-78
2022/11/08 16:59:48;;;;;;;41.05;22.20;;;;;;;;;;6198204;28;20434;-78
2022/11/08 17:02:52;;;;;;;50.70;25.50;;;;;;;;;;6199093;28;20437;-77
2022/11/08 17:05:52;;;;;;;46.55;25.65;;;;;;;;;;6181607;28;20088;-77
2022/11/08 17:08:53;;;;;;;44.03;23.73;;;;;;;;;;6205174;28;20057;-77
2022/11/08 17:11:54;;;;;;;45.37;25.07;;;;;;;;;;6198868;28;20441;-77
2022/11/08 17:14:55;;;;;;;49.95;27.27;;;;;;;;;;6184662;28;20036;-78
2022/11/08 17:17:56;;;;;;;52.10;29.98;;;;;;;;;;6200019;28;20038;-78
2022/11/08 17:20:56;;;;;;;54.30;28.88;;;;;;;;;;6196897;28;20538;-77
2022/11/08 17:23:57;;;;;;;53.43;26.77;;;;;;;;;;6196605;28;20038;-79
2022/11/08 17:26:57;;;;;;;59.72;30.75;;;;;;;;;;6199641;28;20030;-78
2022/11/08 17:29:57;;;;;;;55.60;27.65;;;;;;;;;;6199665;28;20057;-77
2022/11/08 17:32:58;;;;;;;53.35;28.50;;;;;;;;;;6198065;28;20026;-79
2022/11/08 17:36:02;;;;;;;61.85;36.42;;;;;;;;;;6180567;28;20023;-77
2022/11/08 17:39:04;;;;;;;58.00;32.50;;;;;;;;;;6197617;28;20486;-78
2022/11/08 17:42:05;;;;;;;62.63;32.28;;;;;;;;;;6163464;28;20030;-76
2022/11/08 17:45:09;;;;;;;57.73;34.57;;;;;;;;;;6199308;28;20025;-78
2022/11/08 17:48:09;;;;;;;57.90;28.75;;;;;;;;;;6197359;28;20269;-77
2022/11/08 17:51:10;;;;;;;51.00;28.52;;;;;;;;;;6199762;28;20042;-78
2022/11/08 17:54:11;;;;;;;62.40;42.42;;;;;;;;;;6198454;28;20026;-78
2022/11/08 17:57:12;;;;;;;53.53;27.07;;;;;;;;;;6198530;28;20033;-79
2022/11/08 18:00:12;;;;;;;155.15;88.28;;;;;;;;;;6199411;28;20031;-78
2022/11/08 18:03:14;;;;;;;56.77;32.97;;;;;;;;;;6197701;28;20552;-77
2022/11/08 18:06:15;;;;;;;56.60;29.88;;;;;;;;;;6194803;28;20502;-78
2022/11/08 18:09:15;;;;;;;65.88;36.20;;;;;;;;;;6197569;28;20022;-79
2022/11/08 18:12:15;;;;;;;101.03;47.67;;;;;;;;;;6196892;28;20025;-80